createdAt,value
2023-01-19T00:01:36.744Z,99140.94
2023-01-19T00:04:04.768Z,99149.69
2023-01-19T00:06:32.829Z,99161.47
2023-01-19T00:09:00.759Z,99170.28
2023-01-19T00:11:28.507Z,99177.25
2023-01-19T00:13:56.655Z,99183.03
2023-01-19T00:16:24.417Z,99175.53
2023-01-19T00:18:53.123Z,99171.19
2023-01-19T00:21:24.676Z,99170.25
2023-01-19T00:23:52.875Z,99178.09
2023-01-19T00:26:22.288Z,99183.16
2023-01-19T00:28:50.455Z,99167.81
2023-01-19T00:31:20.733Z,99199.41
2023-01-19T00:33:50.158Z,99202.06
2023-01-19T00:36:18.422Z,99206.38
2023-01-19T00:38:46.388Z,99216.84
2023-01-19T00:41:14.173Z,99222.06
2023-01-19T00:43:42.037Z,99213.38
2023-01-19T00:46:10.176Z,99224.19
2023-01-19T00:48:38.086Z,99220.13
2023-01-19T00:51:05.909Z,99232.19
2023-01-19T00:53:33.834Z,99233.19
2023-01-19T00:56:01.479Z,99222.59
2023-01-19T00:58:29.494Z,99213.41
2023-01-19T01:01:03.394Z,99193.66
2023-01-19T01:03:32.219Z,99200.53
2023-01-19T01:06:00.015Z,99197.00
2023-01-19T01:08:28.015Z,99190.25
2023-01-19T01:10:56.064Z,99195.56
2023-01-19T01:13:27.298Z,99197.59
2023-01-19T01:15:57.038Z,99186.41
2023-01-19T01:18:25.308Z,99183.78
2023-01-19T01:20:55.269Z,99188.16
2023-01-19T01:23:24.228Z,99181.38
2023-01-19T01:25:51.963Z,99184.84
2023-01-19T01:28:20.169Z,99193.56
2023-01-19T01:30:47.927Z,99183.41
2023-01-19T01:33:15.960Z,99194.47
2023-01-19T01:36:03.798Z,99185.00
2023-01-19T01:38:31.754Z,99175.69
2023-01-19T01:40:59.403Z,99182.53
2023-01-19T01:43:44.808Z,99188.38
2023-01-19T01:46:15.552Z,99183.72
2023-01-19T01:49:02.698Z,99189.00
2023-01-19T01:51:52.831Z,99183.88
2023-01-19T01:54:46.792Z,99173.53
2023-01-19T01:57:14.995Z,99170.97
2023-01-19T01:59:48.345Z,99180.34
2023-01-19T02:02:41.696Z,99186.03
2023-01-19T02:05:27.350Z,99195.06
2023-01-19T02:08:17.549Z,99199.91
2023-01-19T02:11:05.082Z,99198.53
2023-01-19T02:13:36.995Z,99192.72
2023-01-19T02:16:08.534Z,99197.25
2023-01-19T02:18:37.369Z,99182.72
2023-01-19T02:21:21.182Z,99175.50
2023-01-19T02:24:01.738Z,99180.56
2023-01-19T02:26:46.993Z,99182.38
2023-01-19T02:29:22.799Z,99179.56
2023-01-19T02:31:51.037Z,99179.06
2023-01-19T02:34:20.949Z,99180.78
2023-01-19T02:36:57.452Z,99179.97
2023-01-19T02:39:35.163Z,99175.53
2023-01-19T02:42:12.402Z,99169.50
2023-01-19T02:44:43.459Z,99170.78
2023-01-19T02:47:12.364Z,99184.78
2023-01-19T02:49:40.099Z,99191.78
2023-01-19T02:52:15.988Z,99181.50
2023-01-19T02:54:54.203Z,99180.63
2023-01-19T02:57:27.930Z,99175.38
2023-01-19T03:00:01.396Z,99172.56
2023-01-19T03:02:44.205Z,99176.09
2023-01-19T03:05:38.187Z,99175.44
2023-01-19T03:08:20.905Z,99176.03
2023-01-19T03:10:54.733Z,99182.53
2023-01-19T03:13:28.109Z,99185.16
2023-01-19T03:16:06.123Z,99175.97
2023-01-19T03:18:38.285Z,99181.25
2023-01-19T03:21:07.947Z,99178.66
2023-01-19T03:23:38.776Z,99178.91
2023-01-19T03:26:11.508Z,99188.44
2023-01-19T03:28:42.110Z,99196.94
2023-01-19T03:31:21.605Z,99205.63
2023-01-19T03:33:56.520Z,99209.28
2023-01-19T03:36:36.179Z,99216.81
2023-01-19T03:39:07.934Z,99208.06
2023-01-19T03:41:37.780Z,99212.44
2023-01-19T03:44:07.796Z,99221.13
2023-01-19T03:46:35.703Z,99219.19
2023-01-19T03:49:03.643Z,99226.28
2023-01-19T03:51:34.961Z,99224.38
2023-01-19T03:54:03.291Z,99233.06
2023-01-19T03:56:30.983Z,99232.06
2023-01-19T03:58:59.042Z,99238.97
2023-01-19T04:01:26.965Z,99237.13
2023-01-19T04:03:55.047Z,99243.13
2023-01-19T04:06:23.124Z,99240.09
2023-01-19T04:08:51.689Z,99232.94
2023-01-19T04:11:19.459Z,99241.81
2023-01-19T04:13:47.486Z,99260.53
2023-01-19T04:16:20.085Z,99271.31
2023-01-19T04:18:48.637Z,99274.28
2023-01-19T04:21:16.621Z,99257.50
2023-01-19T04:23:46.022Z,99257.97
2023-01-19T04:26:13.960Z,99256.22
2023-01-19T04:28:41.950Z,99266.25
2023-01-19T04:31:09.911Z,99259.09
2023-01-19T04:33:37.830Z,99271.06
2023-01-19T04:36:05.913Z,99274.16
2023-01-19T04:38:33.875Z,99277.69
2023-01-19T04:41:01.527Z,99288.03
2023-01-19T04:43:29.733Z,99273.41
2023-01-19T04:45:57.534Z,99276.81
2023-01-19T04:48:25.623Z,99288.09
2023-01-19T04:50:53.991Z,99299.34
2023-01-19T04:53:21.975Z,99300.88
2023-01-19T04:55:56.587Z,99305.13
2023-01-19T04:58:24.600Z,99290.75
2023-01-19T05:00:53.196Z,99298.63
2023-01-19T05:03:21.431Z,99309.88
2023-01-19T05:05:49.336Z,99299.97
2023-01-19T05:08:17.390Z,99305.97
2023-01-19T05:10:45.124Z,99313.91
2023-01-19T05:13:14.104Z,99320.03
2023-01-19T05:15:41.925Z,99326.13
2023-01-19T05:18:10.413Z,99326.25
2023-01-19T05:20:38.178Z,99320.13
2023-01-19T05:23:06.057Z,99326.88
2023-01-19T05:25:33.739Z,99322.44
2023-01-19T05:28:03.273Z,99333.00
2023-01-19T05:30:31.167Z,99328.97
2023-01-19T05:32:59.436Z,99315.84
2023-01-19T05:35:35.721Z,99313.59
2023-01-19T05:38:05.314Z,99321.38
2023-01-19T05:40:33.453Z,99328.09
2023-01-19T05:43:05.210Z,99327.25
2023-01-19T05:45:33.603Z,99335.41
2023-01-19T05:48:01.854Z,99335.56
2023-01-19T05:50:29.764Z,99333.16
2023-01-19T05:52:58.576Z,99323.03
2023-01-19T05:55:26.857Z,99329.53
2023-01-19T05:57:54.800Z,99337.94
2023-01-19T06:00:22.681Z,99338.22
2023-01-19T06:02:50.539Z,99336.34
2023-01-19T06:05:18.447Z,99334.75
2023-01-19T06:07:46.509Z,99340.78
2023-01-19T06:10:14.181Z,99346.81
2023-01-19T06:12:42.361Z,99353.72
2023-01-19T06:15:10.392Z,99365.03
2023-01-19T06:17:38.357Z,99369.59
2023-01-19T06:20:07.126Z,99375.16
2023-01-19T06:22:35.090Z,99382.13
2023-01-19T06:25:02.915Z,99382.97
2023-01-19T06:27:30.878Z,99391.31
2023-01-19T06:29:58.488Z,99401.81
2023-01-19T06:32:26.430Z,99413.00
2023-01-19T06:34:54.278Z,99410.47
2023-01-19T06:37:22.442Z,99414.00
2023-01-19T06:39:50.127Z,99421.66
2023-01-19T06:42:18.102Z,99425.75
2023-01-19T06:44:48.124Z,99429.28
2023-01-19T06:47:16.961Z,99419.72
2023-01-19T06:49:44.740Z,99420.91
2023-01-19T06:52:16.073Z,99430.22
2023-01-19T06:54:45.272Z,99436.19
2023-01-19T06:57:15.240Z,99436.09
2023-01-19T06:59:42.934Z,99441.38
2023-01-19T07:02:26.255Z,99434.34
2023-01-19T07:04:55.219Z,99424.19
2023-01-19T07:07:23.150Z,99416.28
2023-01-19T07:09:53.677Z,99415.88
2023-01-19T07:12:22.826Z,99404.66
2023-01-19T07:14:50.568Z,99404.09
2023-01-19T07:17:19.002Z,99399.03
2023-01-19T07:19:47.033Z,99396.31
2023-01-19T07:22:15.035Z,99401.25
2023-01-19T07:24:43.196Z,99408.28
2023-01-19T07:27:13.963Z,99411.84
2023-01-19T07:29:42.397Z,99413.41
2023-01-19T07:32:10.371Z,99408.44
2023-01-19T07:34:38.064Z,99421.81
2023-01-19T07:37:06.073Z,99419.72
2023-01-19T07:39:36.655Z,99416.28
2023-01-19T07:42:04.877Z,99420.38
2023-01-19T07:44:32.698Z,99415.84
2023-01-19T07:47:00.715Z,99423.53
2023-01-19T07:49:28.374Z,99432.00
2023-01-19T07:51:56.499Z,99438.66
2023-01-19T07:54:24.301Z,99442.00
2023-01-19T07:56:55.101Z,99445.59
2023-01-19T07:59:22.818Z,99458.53
2023-01-19T08:01:52.262Z,99457.31
2023-01-19T08:04:20.327Z,99459.47
2023-01-19T08:06:48.359Z,99466.22
2023-01-19T08:09:15.967Z,99449.25
2023-01-19T08:11:43.903Z,99436.25
2023-01-19T08:14:11.635Z,99433.47
2023-01-19T08:16:39.708Z,99438.19
2023-01-19T08:19:07.462Z,99438.25
2023-01-19T08:21:36.464Z,99435.56
2023-01-19T08:24:04.535Z,99416.50
2023-01-19T08:26:34.911Z,99429.97
2023-01-19T08:29:05.189Z,99431.31
2023-01-19T08:31:33.613Z,99430.53
2023-01-19T08:34:01.419Z,99424.44
2023-01-19T08:36:29.364Z,99432.19
2023-01-19T08:38:57.203Z,99436.38
2023-01-19T08:41:25.191Z,99442.19
2023-01-19T08:43:52.860Z,99436.13
2023-01-19T08:46:21.982Z,99435.16
2023-01-19T08:48:50.470Z,99443.88
2023-01-19T08:51:19.394Z,99451.84
2023-01-19T08:53:47.081Z,99458.97
2023-01-19T08:56:15.160Z,99461.94
2023-01-19T08:58:44.555Z,99459.16
2023-01-19T09:01:15.006Z,99439.09
2023-01-19T09:03:43.728Z,99462.41
2023-01-19T09:06:14.776Z,99462.50
2023-01-19T09:08:42.770Z,99455.31
2023-01-19T09:11:12.998Z,99451.47
2023-01-19T09:13:41.563Z,99449.81
2023-01-19T09:16:12.778Z,99454.69
2023-01-19T09:18:40.573Z,99461.34
2023-01-19T09:21:09.095Z,99465.81
2023-01-19T09:23:37.216Z,99467.59
2023-01-19T09:26:06.486Z,99471.13
2023-01-19T09:28:34.300Z,99466.13
2023-01-19T09:31:07.595Z,99471.38
2023-01-19T09:33:36.021Z,99473.13
2023-01-19T09:36:04.385Z,99473.13
2023-01-19T09:38:32.963Z,99484.66
2023-01-19T09:41:01.592Z,99486.19
2023-01-19T09:43:35.382Z,99485.91
2023-01-19T09:46:16.920Z,99473.66
2023-01-19T09:48:56.574Z,99475.31
2023-01-19T09:51:28.059Z,99484.50
2023-01-19T09:54:14.719Z,99493.91
2023-01-19T09:56:49.963Z,99477.16
2023-01-19T09:59:30.544Z,99470.13
2023-01-19T10:02:13.679Z,99465.81
2023-01-19T10:05:22.629Z,99466.72
2023-01-19T10:08:06.131Z,99451.78
2023-01-19T10:10:36.170Z,99455.00
2023-01-19T10:13:12.736Z,99459.06
2023-01-19T10:15:58.417Z,99455.53
2023-01-19T10:18:34.954Z,99450.22
2023-01-19T10:21:06.213Z,99442.53
2023-01-19T10:23:55.760Z,99443.19
2023-01-19T10:26:29.272Z,99438.06
2023-01-19T10:29:05.390Z,99432.47
2023-01-19T10:31:35.958Z,99425.72
2023-01-19T10:34:04.610Z,99428.13
2023-01-19T10:36:38.296Z,99419.50
2023-01-19T10:39:07.252Z,99412.31
2023-01-19T10:41:44.002Z,99413.84
2023-01-19T10:44:12.347Z,99410.50
2023-01-19T10:46:44.103Z,99410.66
2023-01-19T10:49:28.457Z,99412.16
2023-01-19T10:51:57.342Z,99408.16
2023-01-19T10:54:27.632Z,99403.72
2023-01-19T10:57:05.984Z,99408.63
2023-01-19T10:59:45.028Z,99408.22
2023-01-19T11:02:18.497Z,99408.53
2023-01-19T11:04:52.911Z,99399.81
2023-01-19T11:07:26.606Z,99404.69
2023-01-19T11:10:28.557Z,99409.34
2023-01-19T11:12:56.565Z,99407.44
2023-01-19T11:15:28.413Z,99413.09
2023-01-19T11:17:56.365Z,99412.66
2023-01-19T11:20:28.310Z,99416.38
2023-01-19T11:23:14.460Z,99410.47
2023-01-19T11:25:47.853Z,99405.88
2023-01-19T11:28:24.258Z,99396.53
2023-01-19T11:31:10.804Z,99390.75
2023-01-19T11:33:42.467Z,99400.63
2023-01-19T11:36:23.260Z,99392.22
2023-01-19T11:38:54.074Z,99390.41
2023-01-19T11:41:23.570Z,99392.09
2023-01-19T11:43:55.468Z,99391.22
2023-01-19T11:46:27.031Z,99396.69
2023-01-19T11:49:04.972Z,99392.38
2023-01-19T11:51:42.757Z,99389.41
2023-01-19T11:54:23.863Z,99388.34
2023-01-19T11:56:54.022Z,99385.50
2023-01-19T11:59:25.029Z,99387.69
2023-01-19T12:01:57.867Z,99381.22
2023-01-19T12:04:36.342Z,99385.88
2023-01-19T12:07:08.981Z,99384.72
2023-01-19T12:09:51.644Z,99387.75
2023-01-19T12:12:41.112Z,99388.69
2023-01-19T12:15:34.894Z,99390.25
2023-01-19T12:18:05.751Z,99389.81
2023-01-19T12:20:44.331Z,99394.91
2023-01-19T12:23:31.286Z,99390.41
2023-01-19T12:26:08.751Z,99394.03
2023-01-19T12:28:42.466Z,99391.97
2023-01-19T12:31:14.338Z,99387.81
2023-01-19T12:33:42.512Z,99385.22
2023-01-19T12:36:30.181Z,99376.91
2023-01-19T12:39:04.366Z,99385.78
2023-01-19T12:41:33.880Z,99386.88
2023-01-19T12:44:16.591Z,99380.38
2023-01-19T12:46:50.522Z,99383.03
2023-01-19T12:49:33.100Z,99385.31
2023-01-19T12:52:19.701Z,99385.50
2023-01-19T12:54:58.736Z,99387.13
2023-01-19T12:57:41.343Z,99388.19
2023-01-19T13:00:32.403Z,99388.97
2023-01-19T13:03:02.966Z,99383.31
2023-01-19T13:05:39.613Z,99376.75
2023-01-19T13:08:07.865Z,99375.94
2023-01-19T13:11:01.963Z,99375.91
2023-01-19T13:13:42.392Z,99368.75
2023-01-19T13:16:19.593Z,99375.28
2023-01-19T13:18:53.012Z,99374.56
2023-01-19T13:21:36.702Z,99380.19
2023-01-19T13:24:09.814Z,99380.25
2023-01-19T13:26:49.805Z,99348.06
2023-01-19T13:29:30.223Z,99364.72
2023-01-19T13:32:03.500Z,99362.81
2023-01-19T13:34:44.158Z,99379.09
2023-01-19T13:37:27.374Z,99376.03
2023-01-19T13:39:55.639Z,99387.72
2023-01-19T13:42:41.938Z,99381.81
2023-01-19T13:45:27.007Z,99384.75
2023-01-19T13:47:57.099Z,99392.22
2023-01-19T13:50:31.287Z,99393.16
2023-01-19T13:52:59.424Z,99388.84
2023-01-19T13:55:30.445Z,99391.66
2023-01-19T13:57:58.883Z,99395.19
2023-01-19T14:00:31.202Z,99394.94
2023-01-19T14:03:13.426Z,99390.69
2023-01-19T14:05:43.442Z,99392.72
2023-01-19T14:08:11.447Z,99403.31
2023-01-19T14:10:54.189Z,99401.09
2023-01-19T14:13:26.365Z,99399.53
2023-01-19T14:15:58.687Z,99395.47
2023-01-19T14:18:31.467Z,99391.84
2023-01-19T14:20:59.150Z,99387.25
2023-01-19T14:23:50.843Z,99392.56
2023-01-19T14:26:43.570Z,99396.88
2023-01-19T14:29:23.808Z,99401.84
2023-01-19T14:31:53.368Z,99402.94
2023-01-19T14:34:33.257Z,99393.88
2023-01-19T14:37:02.599Z,99389.53
2023-01-19T14:39:36.210Z,99392.72
2023-01-19T14:42:06.765Z,99402.31
2023-01-19T14:44:41.062Z,99395.66
2023-01-19T14:47:30.413Z,99396.50
2023-01-19T14:50:02.862Z,99399.28
2023-01-19T14:52:42.271Z,99401.28
2023-01-19T14:55:21.328Z,99408.88
2023-01-19T14:57:49.202Z,99404.75
2023-01-19T15:00:19.358Z,99404.00
2023-01-19T15:02:47.918Z,99405.78
2023-01-19T15:05:16.559Z,99420.50
2023-01-19T15:07:46.228Z,99416.38
2023-01-19T15:10:23.832Z,99417.09
2023-01-19T15:12:52.997Z,99418.25
2023-01-19T15:15:26.835Z,99419.22
2023-01-19T15:17:56.199Z,99419.97
2023-01-19T15:20:24.607Z,99428.75
2023-01-19T15:22:52.263Z,99427.16
2023-01-19T15:25:23.065Z,99430.63
2023-01-19T15:27:50.805Z,99431.09
2023-01-19T15:30:33.676Z,99423.31
2023-01-19T15:33:01.986Z,99416.53
2023-01-19T15:35:29.920Z,99414.88
2023-01-19T15:37:57.811Z,99417.44
2023-01-19T15:40:25.929Z,99416.88
2023-01-19T15:42:53.490Z,99424.56
2023-01-19T15:45:35.005Z,99431.56
2023-01-19T15:48:07.884Z,99434.84
2023-01-19T15:50:38.841Z,99435.78
2023-01-19T15:53:07.849Z,99438.88
2023-01-19T15:55:35.741Z,99435.69
2023-01-19T15:58:03.588Z,99433.13
2023-01-19T16:00:33.327Z,99435.41
2023-01-19T16:03:02.613Z,99431.06
2023-01-19T16:05:42.631Z,99437.28
2023-01-19T16:08:12.117Z,99430.81
2023-01-19T16:10:41.923Z,99424.59
2023-01-19T16:13:12.047Z,99420.59
2023-01-19T16:15:42.493Z,99429.28
2023-01-19T16:18:10.355Z,99434.63
2023-01-19T16:20:38.337Z,99436.34
2023-01-19T16:23:21.122Z,99428.50
2023-01-19T16:26:00.922Z,99426.72
2023-01-19T16:28:28.699Z,99436.47
2023-01-19T16:30:56.647Z,99436.34
2023-01-19T16:33:24.262Z,99444.88
2023-01-19T16:35:52.779Z,99426.84
2023-01-19T16:38:21.832Z,99436.19
2023-01-19T16:40:50.030Z,99441.56
2023-01-19T16:43:18.688Z,99438.06
2023-01-19T16:46:01.261Z,99439.91
2023-01-19T16:48:29.884Z,99438.00
2023-01-19T16:51:03.371Z,99438.06
2023-01-19T16:53:32.473Z,99438.00
2023-01-19T16:56:04.295Z,99443.22
2023-01-19T16:58:32.024Z,99449.34
2023-01-19T17:01:00.032Z,99448.63
2023-01-19T17:03:27.702Z,99451.06
2023-01-19T17:05:55.670Z,99443.06
2023-01-19T17:08:23.399Z,99450.03
2023-01-19T17:10:51.418Z,99436.91
2023-01-19T17:13:19.064Z,99434.09
2023-01-19T17:15:47.167Z,99430.94
2023-01-19T17:18:14.834Z,99438.94
2023-01-19T17:20:42.762Z,99423.31
2023-01-19T17:23:10.432Z,99432.13
2023-01-19T17:25:38.353Z,99431.31
2023-01-19T17:28:05.998Z,99431.81
2023-01-19T17:30:34.182Z,99427.41
2023-01-19T17:33:01.881Z,99431.75
2023-01-19T17:35:29.792Z,99420.59
2023-01-19T17:37:58.369Z,99425.66
2023-01-19T17:40:26.252Z,99420.69
2023-01-19T17:42:53.904Z,99430.44
2023-01-19T17:45:21.827Z,99422.66
2023-01-19T17:47:52.665Z,99415.78
2023-01-19T17:50:20.534Z,99410.13
2023-01-19T17:52:48.291Z,99407.91
2023-01-19T17:55:17.735Z,99411.13
2023-01-19T17:57:45.588Z,99421.03
2023-01-19T18:00:14.513Z,99424.69
2023-01-19T18:02:42.444Z,99430.03
2023-01-19T18:05:12.693Z,99437.72
2023-01-19T18:07:40.700Z,99430.88
2023-01-19T18:10:09.515Z,99431.44
2023-01-19T18:12:37.439Z,99422.75
2023-01-19T18:15:07.002Z,99430.38
2023-01-19T18:17:34.749Z,99427.13
2023-01-19T18:20:02.838Z,99424.47
2023-01-19T18:22:31.643Z,99429.72
2023-01-19T18:25:01.581Z,99425.13
2023-01-19T18:27:29.471Z,99435.81
2023-01-19T18:29:57.720Z,99433.03
2023-01-19T18:32:27.165Z,99440.78
2023-01-19T18:34:55.529Z,99430.69
2023-01-19T18:37:23.187Z,99428.13
2023-01-19T18:39:51.185Z,99433.34
2023-01-19T18:42:18.816Z,99432.47
2023-01-19T18:44:46.732Z,99431.59
2023-01-19T18:47:14.579Z,99429.72
2023-01-19T18:49:42.512Z,99431.50
2023-01-19T18:52:10.317Z,99427.38
2023-01-19T18:54:38.285Z,99429.94
2023-01-19T18:57:05.894Z,99437.03
2023-01-19T18:59:33.925Z,99433.63
2023-01-19T19:02:01.716Z,99430.13
2023-01-19T19:04:29.681Z,99435.34
2023-01-19T19:06:57.386Z,99431.88
2023-01-19T19:09:25.339Z,99430.41
2023-01-19T19:11:53.007Z,99437.94
2023-01-19T19:14:20.868Z,99434.63
2023-01-19T19:16:48.505Z,99440.72
2023-01-19T19:19:17.074Z,99443.41
2023-01-19T19:21:45.061Z,99442.66
2023-01-19T19:24:13.514Z,99444.47
2023-01-19T19:26:41.989Z,99452.19
2023-01-19T19:29:09.880Z,99439.34
2023-01-19T19:31:37.533Z,99449.50
2023-01-19T19:34:05.755Z,99451.28
2023-01-19T19:36:33.626Z,99448.66
2023-01-19T19:39:01.600Z,99444.41
2023-01-19T19:41:29.943Z,99444.50
2023-01-19T19:43:58.583Z,99442.88
2023-01-19T19:46:27.090Z,99449.69
2023-01-19T19:48:55.532Z,99454.84
2023-01-19T19:51:27.068Z,99459.16
2023-01-19T19:53:57.417Z,99465.88
2023-01-19T19:56:27.993Z,99462.66
2023-01-19T19:58:58.154Z,99461.69
2023-01-19T20:01:32.524Z,99470.38
2023-01-19T20:04:09.535Z,99465.25
2023-01-19T20:06:40.967Z,99464.50
2023-01-19T20:09:10.636Z,99470.47
2023-01-19T20:11:38.477Z,99470.53
2023-01-19T20:14:08.185Z,99476.53
2023-01-19T20:16:36.376Z,99482.69
2023-01-19T20:19:05.058Z,99480.97
2023-01-19T20:21:38.179Z,99485.94
2023-01-19T20:24:09.853Z,99477.41
2023-01-19T20:26:41.026Z,99482.59
2023-01-19T20:29:10.712Z,99486.00
2023-01-19T20:31:43.199Z,99486.09
2023-01-19T20:34:13.235Z,99497.09
2023-01-19T20:36:41.705Z,99484.41
2023-01-19T20:39:11.098Z,99488.69
2023-01-19T20:41:43.317Z,99494.66
2023-01-19T20:44:17.120Z,99499.03
2023-01-19T20:46:44.818Z,99498.16
2023-01-19T20:49:13.564Z,99499.03
2023-01-19T20:51:43.506Z,99497.31
2023-01-19T20:54:12.688Z,99503.47
2023-01-19T20:56:41.587Z,99496.53
2023-01-19T20:59:11.283Z,99506.66
2023-01-19T21:01:40.236Z,99510.97
2023-01-19T21:04:08.889Z,99506.88
2023-01-19T21:06:37.293Z,99506.84
2023-01-19T21:09:05.686Z,99508.53
2023-01-19T21:11:33.360Z,99505.88
2023-01-19T21:14:00.895Z,99514.59
2023-01-19T21:16:30.981Z,99503.22
2023-01-19T21:18:59.035Z,99511.00
2023-01-19T21:21:31.826Z,99517.16
2023-01-19T21:24:01.572Z,99519.69
2023-01-19T21:26:30.295Z,99518.81
2023-01-19T21:28:59.514Z,99529.16
2023-01-19T21:31:28.497Z,99539.34
2023-01-19T21:33:57.716Z,99549.69
2023-01-19T21:36:25.769Z,99547.25
2023-01-19T21:38:55.635Z,99544.63
2023-01-19T21:41:23.965Z,99546.38
2023-01-19T21:43:51.627Z,99554.97
2023-01-19T21:46:28.848Z,99555.88
2023-01-19T21:49:01.821Z,99561.94
2023-01-19T21:51:34.819Z,99562.72
2023-01-19T21:54:04.304Z,99573.06
2023-01-19T21:56:32.776Z,99574.81
2023-01-19T21:59:04.173Z,99582.53
2023-01-19T22:01:35.596Z,99579.97
2023-01-19T22:04:03.613Z,99582.63
2023-01-19T22:06:31.728Z,99584.34
2023-01-19T22:09:00.740Z,99582.53
2023-01-19T22:11:30.083Z,99577.44
2023-01-19T22:14:01.434Z,99578.31
2023-01-19T22:16:30.266Z,99582.59
2023-01-19T22:19:01.189Z,99580.03
2023-01-19T22:21:31.956Z,99588.56
2023-01-19T22:24:01.319Z,99598.03
2023-01-19T22:26:31.010Z,99589.41
2023-01-19T22:29:01.047Z,99594.53
2023-01-19T22:31:30.775Z,99593.66
2023-01-19T22:33:58.840Z,99596.22
2023-01-19T22:36:28.086Z,99581.63
2023-01-19T22:39:00.837Z,99582.56
2023-01-19T22:41:34.744Z,99587.66
2023-01-19T22:44:05.748Z,99596.31
2023-01-19T22:46:35.440Z,99594.72
2023-01-19T22:49:03.972Z,99602.47
2023-01-19T22:51:32.647Z,99597.25
2023-01-19T22:54:00.881Z,99598.22
2023-01-19T22:56:30.967Z,99601.66
2023-01-19T22:58:59.723Z,99603.47
2023-01-19T23:01:30.363Z,99608.53
2023-01-19T23:03:58.198Z,99610.31
2023-01-19T23:06:31.331Z,99608.50
2023-01-19T23:09:01.328Z,99617.03
2023-01-19T23:11:36.055Z,99625.63
2023-01-19T23:14:07.072Z,99636.81
2023-01-19T23:16:36.212Z,99636.81
2023-01-19T23:19:05.020Z,99646.97
2023-01-19T23:21:33.393Z,99647.03
2023-01-19T23:24:04.141Z,99650.50
2023-01-19T23:26:38.449Z,99649.69
2023-01-19T23:29:13.085Z,99644.56
2023-01-19T23:31:44.896Z,99641.16
2023-01-19T23:34:13.445Z,99641.16
2023-01-19T23:36:42.745Z,99648.00
2023-01-19T23:39:19.902Z,99644.59
2023-01-19T23:41:48.695Z,99647.22
2023-01-19T23:44:17.304Z,99652.38
2023-01-19T23:46:45.972Z,99655.75
2023-01-19T23:49:14.456Z,99664.31
2023-01-19T23:51:42.762Z,99681.50
2023-01-19T23:54:12.214Z,99677.19
2023-01-19T23:56:40.287Z,99684.94
2023-01-19T23:59:10.536Z,99690.97
